Time;durP1;ratioP1;P1;durP2;ratioP2;P2;SDS_P1;SDS_P2;PMS_P1;PMS_P2;Temp;Humidity;BMP_temperature;BMP_pressure;BME280_temperature;BME280_humidity;BME280_pressure;Samples;Min_cycle;Max_cycle;Signal;HPM_P1;HPM_P2
2021/01/05 03:46:07;;;;;;;22.58;9.60;;;1.50;85.20;;;;;;5577549;23;88249;-85
2021/01/05 03:48:32;;;;;;;22.08;10.07;;;1.50;85.00;;;;;;4970601;28;87002;-85
2021/01/05 03:50:58;;;;;;;21.27;10.55;;;1.50;85.50;;;;;;4969317;28;86690;-86
2021/01/05 03:53:25;;;;;;;22.40;10.75;;;1.50;85.40;;;;;;4973990;28;87428;-85
2021/01/05 03:55:52;;;;;;;20.88;10.75;;;1.50;85.80;;;;;;4958836;28;86656;-85
2021/01/05 03:58:18;;;;;;;24.27;11.05;;;1.50;85.20;;;;;;4958930;28;86728;-85
2021/01/05 04:00:45;;;;;;;26.98;11.43;;;1.50;85.10;;;;;;4969070;28;89453;-85
2021/01/05 04:03:10;;;;;;;26.17;11.55;;;1.40;85.10;;;;;;4971947;28;88267;-85
2021/01/05 04:05:36;;;;;;;25.95;10.65;;;1.40;85.40;;;;;;4970347;28;86556;-85
2021/01/05 04:08:10;;;;;;;21.05;9.40;;;1.40;85.50;;;;;;4956972;28;87163;-85
2021/01/05 04:10:36;;;;;;;24.42;11.02;;;;;;;;;;4940131;28;89220;-85
2021/01/05 04:13:02;;;;;;;20.95;10.77;;;;;;;;;;4968701;28;87131;-85
2021/01/05 04:15:29;;;;;;;20.15;9.27;;;1.30;85.50;;;;;;4971121;28;86476;-85
2021/01/05 04:17:56;;;;;;;21.58;10.27;;;1.30;86.10;;;;;;4971663;28;86346;-85
2021/01/05 04:20:24;;;;;;;20.52;9.18;;;1.40;86.10;;;;;;4973373;28;86981;-85
2021/01/05 04:22:51;;;;;;;20.92;11.13;;;;;;;;;;4970111;28;87136;-85
2021/01/05 04:25:19;;;;;;;19.88;9.63;;;1.40;85.30;;;;;;4969535;28;87514;-84
2021/01/05 04:27:46;;;;;;;26.52;11.23;;;1.40;85.80;;;;;;4971547;28;86888;-85
2021/01/05 04:30:28;;;;;;;23.38;10.40;;;1.40;85.90;;;;;;4963105;28;88217;-85
2021/01/05 04:32:57;;;;;;;21.95;10.15;;;1.40;85.80;;;;;;4969032;28;86810;-85
2021/01/05 04:35:23;;;;;;;22.98;10.25;;;1.40;85.70;;;;;;4988896;28;86550;-84
2021/01/05 04:37:50;;;;;;;22.67;10.00;;;1.30;85.80;;;;;;4972787;28;86699;-84
2021/01/05 04:40:33;;;;;;;21.15;9.75;;;1.30;86.10;;;;;;4980807;28;87780;-82
2021/01/05 04:43:09;;;;;;;25.50;11.32;;;1.30;86.20;;;;;;4979497;28;86258;-82
2021/01/05 04:45:54;;;;;;;20.67;9.70;;;1.20;86.50;;;;;;4983640;28;86332;-82
2021/01/05 04:48:35;;;;;;;19.42;9.93;;;1.30;87.10;;;;;;4960226;28;86940;-85
2021/01/05 04:51:05;;;;;;;22.90;11.70;;;1.30;86.80;;;;;;4946050;28;88472;-85
2021/01/05 04:53:43;;;;;;;22.17;10.55;;;1.30;86.50;;;;;;4957586;28;87490;-82
2021/01/05 04:56:14;;;;;;;22.85;11.73;;;1.40;86.40;;;;;;4961146;28;86829;-82
2021/01/05 04:58:45;;;;;;;22.52;9.10;;;1.30;86.60;;;;;;4961217;28;86154;-83
2021/01/05 05:01:21;;;;;;;21.70;10.27;;;1.30;86.50;;;;;;4954982;28;87378;-85
2021/01/05 05:04:12;;;;;;;21.75;10.00;;;1.30;86.50;;;;;;4943496;28;86838;-85
2021/01/05 05:06:53;;;;;;;23.92;11.07;;;1.30;86.30;;;;;;4947400;28;87802;-85
2021/01/05 05:10:02;;;;;;;21.67;10.07;;;1.40;85.80;;;;;;4932861;28;86179;-85
2021/01/05 05:12:59;;;;;;;23.60;10.02;;;1.30;86.60;;;;;;4924487;28;87981;-85
2021/01/05 05:15:42;;;;;;;20.60;9.57;;;1.10;86.80;;;;;;4939379;28;86961;-85
2021/01/05 05:18:16;;;;;;;23.38;10.63;;;1.20;87.20;;;;;;4950643;28;87929;-85
2021/01/05 05:20:53;;;;;;;23.30;9.57;;;1.20;87.30;;;;;;4945539;28;86958;-85
2021/01/05 05:23:46;;;;;;;22.58;9.50;;;1.30;86.80;;;;;;4951505;28;87312;-85
2021/01/05 05:26:35;;;;;;;19.13;10.52;;;1.40;85.80;;;;;;4951153;28;87435;-84
2021/01/05 05:29:24;;;;;;;22.52;10.45;;;1.40;86.30;;;;;;4949878;28;86902;-83
2021/01/05 05:31:59;;;;;;;21.20;10.13;;;1.30;86.70;;;;;;4943572;28;86723;-84
2021/01/05 05:34:49;;;;;;;23.73;9.70;;;1.30;86.80;;;;;;4934358;28;87376;-84
2021/01/05 05:37:26;;;;;;;22.92;11.02;;;1.40;86.70;;;;;;4950487;28;86514;-84
2021/01/05 05:40:23;;;;;;;22.60;10.38;;;1.40;86.60;;;;;;4952198;28;86845;-84
2021/01/05 05:43:07;;;;;;;23.67;10.60;;;1.40;86.50;;;;;;4939750;28;86722;-86
2021/01/05 05:45:46;;;;;;;19.33;9.95;;;1.40;86.70;;;;;;4948561;28;90254;-85
2021/01/05 05:48:56;;;;;;;22.73;10.95;;;1.40;86.90;;;;;;4967642;28;88093;-86
2021/01/05 05:51:27;;;;;;;21.30;11.18;;;1.10;88.20;;;;;;4876319;28;87020;-85
2021/01/05 05:54:09;;;;;;;19.92;9.77;;;1.50;86.00;;;;;;4865757;28;87228;-85
2021/01/05 05:57:12;;;;;;;23.25;9.82;;;1.50;86.50;;;;;;4960967;28;87403;-85
2021/01/05 05:59:57;;;;;;;24.27;10.93;;;1.50;86.70;;;;;;4964106;28;87588;-85
2021/01/05 06:02:23;;;;;;;23.23;11.68;;;1.50;86.40;;;;;;4970021;28;86824;-85
2021/01/05 06:04:56;;;;;;;22.67;10.90;;;1.50;85.90;;;;;;4954432;28;86338;-85
2021/01/05 06:07:22;;;;;;;21.08;10.25;;;1.50;86.40;;;;;;4971688;28;87672;-85
2021/01/05 06:09:48;;;;;;;22.42;10.27;;;1.40;87.30;;;;;;4962761;28;87502;-85
2021/01/05 06:12:13;;;;;;;21.38;10.55;;;1.40;86.90;;;;;;4964189;28;87836;-85
2021/01/05 06:14:39;;;;;;;20.65;9.35;;;1.40;87.00;;;;;;4963631;28;86874;-86
2021/01/05 06:17:05;;;;;;;20.77;11.70;;;1.70;89.10;;;;;;4971152;28;86766;-85
2021/01/05 06:19:33;;;;;;;21.85;10.85;;;1.50;86.90;;;;;;4971154;28;87154;-88
2021/01/05 06:22:00;;;;;;;22.65;10.15;;;1.40;87.10;;;;;;4977010;28;86699;-85
2021/01/05 06:24:27;;;;;;;23.20;12.43;;;;;;;;;;4976072;28;87024;-86
2021/01/05 06:26:53;;;;;;;18.65;9.20;;;1.30;87.10;;;;;;4959212;28;86899;-86
2021/01/05 06:29:20;;;;;;;20.08;10.10;;;1.30;87.60;;;;;;4971147;28;86601;-86
2021/01/05 06:31:46;;;;;;;18.63;9.10;;;1.40;87.30;;;;;;4970980;28;86851;-85
2021/01/05 06:34:12;;;;;;;22.80;11.60;;;;;;;;;;4971467;28;87020;-86
2021/01/05 06:36:37;;;;;;;20.60;10.68;;;1.40;85.90;;;;;;4971591;28;88192;-86
2021/01/05 06:39:04;;;;;;;23.92;10.55;;;1.40;86.80;;;;;;4971746;28;88107;-87
2021/01/05 06:41:30;;;;;;;24.42;11.57;;;1.30;87.40;;;;;;4953219;28;86885;-86
2021/01/05 06:43:56;;;;;;;22.08;9.88;;;1.40;87.60;;;;;;4971272;28;87172;-85
2021/01/05 06:46:21;;;;;;;25.30;12.23;;;1.00;89.10;;;;;;4959095;28;87283;-85
2021/01/05 06:48:47;;;;;;;20.17;10.43;;;1.30;87.90;;;;;;4967260;28;87593;-86
2021/01/05 06:51:13;;;;;;;24.80;10.77;;;1.30;88.00;;;;;;4963118;28;87414;-89
2021/01/05 06:53:38;;;;;;;27.63;12.57;;;1.70;89.00;;;;;;4974910;28;86401;-86
2021/01/05 06:56:04;;;;;;;24.65;11.25;;;1.40;87.50;;;;;;4969768;28;87124;-87
2021/01/05 06:58:30;;;;;;;26.27;10.48;;;1.50;87.70;;;;;;4951112;28;89772;-86
2021/01/05 07:00:56;;;;;;;20.85;10.88;;;1.50;87.70;;;;;;4967606;28;87119;-88
2021/01/05 07:03:22;;;;;;;18.52;10.55;;;;;;;;;;4953010;28;86781;-87
2021/01/05 07:05:48;;;;;;;31.00;11.85;;;1.50;87.00;;;;;;4977574;28;87579;-85
2021/01/05 07:08:13;;;;;;;25.00;11.00;;;1.50;87.50;;;;;;4979265;28;88197;-87
2021/01/05 07:10:39;;;;;;;22.92;11.00;;;1.50;88.40;;;;;;4968942;28;86909;-86
2021/01/05 07:13:05;;;;;;;21.42;10.98;;;;;;;;;;4969918;28;86723;-87
2021/01/05 07:15:32;;;;;;;20.10;9.13;;;1.40;87.10;;;;;;4940555;28;89166;-87
2021/01/05 07:17:59;;;;;;;24.13;10.32;;;1.40;87.70;;;;;;4966168;28;87381;-87
2021/01/05 07:20:25;;;;;;;27.73;11.57;;;1.40;88.00;;;;;;4936743;28;86300;-87
2021/01/05 07:22:50;;;;;;;23.10;10.07;;;1.40;87.70;;;;;;4969482;28;86973;-88
2021/01/05 07:25:16;;;;;;;25.17;10.27;;;;;;;;;;4957921;28;88940;-86
2021/01/05 07:27:42;;;;;;;19.98;10.65;;;;;;;;;;4975858;28;89742;-87
2021/01/05 07:30:09;;;;;;;23.95;11.70;;;1.40;87.30;;;;;;4971913;28;86947;-88
2021/01/05 07:32:36;;;;;;;23.75;13.05;;;;;;;;;;4967269;28;86858;-88
2021/01/05 07:35:04;;;;;;;27.95;13.55;;;1.60;87.30;;;;;;4964247;28;88021;-87
2021/01/05 07:37:33;;;;;;;27.88;12.52;;;1.60;87.40;;;;;;4967786;28;87639;-88
2021/01/05 07:39:59;;;;;;;30.52;13.95;;;;;;;;;;4968690;28;86951;-88
2021/01/05 07:42:28;;;;;;;31.77;13.90;;;1.70;86.90;;;;;;4967016;28;85523;-88
2021/01/05 07:44:56;;;;;;;28.13;11.63;;;1.70;87.40;;;;;;4970813;28;86822;-87
2021/01/05 07:47:27;;;;;;;27.65;12.38;;;1.60;87.00;;;;;;4947399;28;88968;-86
2021/01/05 07:49:54;;;;;;;27.55;12.40;;;1.70;87.10;;;;;;4959314;28;87826;-85
2021/01/05 07:52:37;;;;;;;27.08;13.07;;;1.70;86.90;;;;;;4975994;28;87019;-87
2021/01/05 07:55:08;;;;;;;26.48;11.77;;;1.70;87.50;;;;;;4966842;28;88755;-87
2021/01/05 07:57:33;;;;;;;;;;;1.70;87.60;;;;;;4950912;28;90997;-88
2021/01/05 07:59:59;;;;;;;28.17;11.60;;;1.80;89.50;;;;;;4968825;28;86932;-86
2021/01/05 08:02:25;;;;;;;34.63;12.90;;;1.90;89.30;;;;;;4996576;28;86783;-85
2021/01/05 08:04:51;;;;;;;28.08;11.93;;;2.00;87.60;;;;;;4975093;28;87425;-82
2021/01/05 08:07:16;;;;;;;30.55;13.45;;;2.00;87.90;;;;;;4978049;28;86257;-83
2021/01/05 08:09:43;;;;;;;32.13;12.77;;;2.00;88.00;;;;;;4983377;28;86939;-81
2021/01/05 08:12:15;;;;;;;31.48;15.48;;;2.20;87.10;;;;;;4983372;28;86931;-81
2021/01/05 08:14:41;;;;;;;27.98;12.73;;;2.10;87.10;;;;;;4974673;28;87857;-83
2021/01/05 08:17:08;;;;;;;29.98;13.93;;;;;;;;;;4952712;28;92594;-84
2021/01/05 08:19:33;;;;;;;33.50;13.80;;;2.10;86.10;;;;;;4972190;28;86903;-83
2021/01/05 08:21:59;;;;;;;31.17;13.40;;;2.10;86.40;;;;;;4968762;28;86865;-86
2021/01/05 08:24:25;;;;;;;32.15;14.70;;;;;;;;;;4971813;28;87694;-85
2021/01/05 08:26:51;;;;;;;31.75;15.15;;;;;;;;;;4970246;28;87310;-85
2021/01/05 08:29:17;;;;;;;31.20;13.95;;;2.10;86.30;;;;;;4950182;28;86633;-85
2021/01/05 08:31:44;;;;;;;35.05;15.32;;;2.30;86.20;;;;;;4972280;28;86409;-84
2021/01/05 08:34:10;;;;;;;32.72;14.95;;;2.20;85.90;;;;;;4972014;28;87719;-85
2021/01/05 08:36:36;;;;;;;32.92;14.70;;;2.10;86.00;;;;;;4981022;28;86932;-81
2021/01/05 08:39:03;;;;;;;34.85;15.10;;;2.10;86.40;;;;;;4952081;28;88247;-83
2021/01/05 08:41:29;;;;;;;30.40;15.07;;;;;;;;;;4951805;28;88914;-85
2021/01/05 08:43:58;;;;;;;30.38;13.23;;;2.10;86.10;;;;;;4968346;28;87568;-85
2021/01/05 08:46:26;;;;;;;25.95;12.85;;;1.70;86.00;;;;;;4967409;28;87266;-83
2021/01/05 08:48:52;;;;;;;23.08;12.43;;;;;;;;;;4972348;28;86812;-84
2021/01/05 08:51:21;;;;;;;28.83;13.13;;;2.00;86.00;;;;;;4976420;28;86784;-85
2021/01/05 08:53:48;;;;;;;30.17;12.63;;;2.00;86.00;;;;;;4970619;28;89485;-86
2021/01/05 08:56:21;;;;;;;31.15;12.88;;;2.10;86.40;;;;;;4990635;28;87106;-85
2021/01/05 08:58:48;;;;;;;28.42;13.20;;;;;;;;;;4972751;28;86909;-85
2021/01/05 09:01:14;;;;;;;25.65;12.02;;;;;;;;;;4970970;28;86952;-86
2021/01/05 09:03:40;;;;;;;27.77;11.90;;;1.90;86.80;;;;;;4969729;28;88364;-86
2021/01/05 09:06:07;;;;;;;25.35;11.85;;;;;;;;;;4965545;28;87978;-85
2021/01/05 09:08:33;;;;;;;27.83;12.55;;;1.80;86.40;;;;;;4952524;28;87042;-84
2021/01/05 09:11:00;;;;;;;22.65;10.13;;;1.90;86.70;;;;;;4952110;28;86750;-86
2021/01/05 09:13:26;;;;;;;24.42;11.02;;;1.90;86.80;;;;;;4954802;28;89067;-85
2021/01/05 09:15:53;;;;;;;25.52;10.70;;;1.90;86.90;;;;;;4969186;28;87254;-85
2021/01/05 09:18:19;;;;;;;20.88;10.73;;;1.80;86.10;;;;;;4971561;28;86642;-85
2021/01/05 09:20:54;;;;;;;24.42;11.73;;;1.60;86.30;;;;;;4971166;28;85953;-85
2021/01/05 09:23:24;;;;;;;23.98;11.70;;;1.70;86.60;;;;;;4973592;28;88394;-85
2021/01/05 09:25:54;;;;;;;22.10;11.07;;;1.80;87.00;;;;;;4972128;28;86864;-83
2021/01/05 09:28:21;;;;;;;25.00;10.82;;;1.60;87.00;;;;;;4973178;28;87895;-86
2021/01/05 09:30:49;;;;;;;24.88;10.70;;;1.70;87.30;;;;;;4955134;28;86877;-86
2021/01/05 09:33:16;;;;;;;22.67;11.23;;;1.80;86.60;;;;;;4983186;28;87556;-86
2021/01/05 09:35:42;;;;;;;25.65;12.13;;;;;;;;;;4944642;28;89870;-87
2021/01/05 09:38:10;;;;;;;23.25;9.80;;;1.60;84.60;;;;;;4954352;28;86583;-86
2021/01/05 09:40:42;;;;;;;24.50;11.60;;;1.60;86.20;;;;;;4952237;28;87001;-83
2021/01/05 09:43:11;;;;;;;24.48;10.43;;;1.40;86.40;;;;;;4943838;28;90207;-86
2021/01/05 09:45:38;;;;;;;23.05;10.50;;;1.50;86.40;;;;;;4953954;28;88429;-86
2021/01/05 09:48:11;;;;;;;24.95;10.05;;;1.50;86.90;;;;;;4954506;28;86154;-87
2021/01/05 09:50:40;;;;;;;25.00;9.95;;;1.60;86.80;;;;;;4971797;28;86814;-87
2021/01/05 09:53:07;;;;;;;22.33;10.40;;;1.60;86.20;;;;;;4972874;28;87933;-84
2021/01/05 09:55:33;;;;;;;25.20;12.15;;;1.80;85.30;;;;;;4953477;28;92090;-85
2021/01/05 09:57:59;;;;;;;28.20;12.68;;;;;;;;;;4954442;28;86957;-86
2021/01/05 10:00:26;;;;;;;25.52;10.70;;;1.90;85.60;;;;;;4990833;28;86794;-86
2021/01/05 10:02:52;;;;;;;21.48;11.65;;;;;;;;;;4986740;28;87812;-86
2021/01/05 10:05:18;;;;;;;23.92;11.23;;;2.00;84.50;;;;;;4965848;28;87494;-86
2021/01/05 10:07:45;;;;;;;24.25;10.73;;;2.10;85.10;;;;;;4972925;28;86681;-85
2021/01/05 10:10:25;;;;;;;26.15;11.93;;;2.20;83.80;;;;;;4971971;28;85875;-86
2021/01/05 10:12:52;;;;;;;24.50;12.25;;;;;;;;;;4971500;28;87710;-86
2021/01/05 10:15:21;;;;;;;26.00;11.82;;;2.30;82.90;;;;;;4973025;28;86991;-84
2021/01/05 10:17:47;;;;;;;25.30;11.52;;;;;;;;;;4956340;28;87954;-86
2021/01/05 10:20:14;;;;;;;23.95;12.35;;;2.30;82.50;;;;;;4971592;28;87164;-86
2021/01/05 10:22:41;;;;;;;27.63;11.00;;;2.30;82.90;;;;;;4973627;28;86849;-86
2021/01/05 10:25:09;;;;;;;23.67;12.02;;;2.40;83.50;;;;;;4973718;28;87628;-86
2021/01/05 10:27:36;;;;;;;22.15;10.48;;;2.10;83.70;;;;;;4973494;28;87314;-86
2021/01/05 10:30:10;;;;;;;23.88;11.95;;;2.00;83.70;;;;;;4965038;28;86541;-86
2021/01/05 10:32:35;;;;;;;25.30;10.43;;;2.00;84.20;;;;;;4971334;28;87810;-86
2021/01/05 10:35:03;;;;;;;23.75;10.77;;;2.00;83.80;;;;;;4970776;28;87062;-87
2021/01/05 10:37:29;;;;;;;25.73;13.48;;;1.70;83.40;;;;;;4973022;28;86823;-87
2021/01/05 10:39:55;;;;;;;25.58;10.68;;;2.10;83.80;;;;;;4957935;28;86158;-86
2021/01/05 10:42:20;;;;;;;25.73;10.98;;;2.20;83.40;;;;;;4968221;28;90732;-84
2021/01/05 10:44:46;;;;;;;29.25;12.35;;;2.40;82.10;;;;;;4984576;28;88697;-84
2021/01/05 10:47:14;;;;;;;23.75;11.25;;;;;;;;;;4987204;28;86224;-83
2021/01/05 10:49:41;;;;;;;27.17;11.13;;;2.20;81.70;;;;;;4984675;28;86552;-87
2021/01/05 10:52:15;;;;;;;26.58;11.20;;;2.10;82.10;;;;;;4960260;28;87097;-87
2021/01/05 10:54:41;;;;;;;25.17;12.48;;;2.20;82.30;;;;;;4980275;28;87492;-84
2021/01/05 10:57:07;;;;;;;24.50;10.60;;;;;;;;;;4987704;28;86161;-85
2021/01/05 10:59:33;;;;;;;22.60;10.75;;;2.30;82.30;;;;;;4987976;28;85543;-83
2021/01/05 11:02:02;;;;;;;26.05;12.13;;;2.50;81.80;;;;;;4983328;28;87382;-85
2021/01/05 11:04:28;;;;;;;26.67;12.05;;;;;;;;;;4960716;28;87854;-86
2021/01/05 11:06:56;;;;;;;25.00;10.80;;;2.70;80.70;;;;;;4976481;28;87079;-85
2021/01/05 11:09:23;;;;;;;29.35;12.60;;;;;;;;;;4977111;28;86692;-83
2021/01/05 11:12:06;;;;;;;29.05;12.77;;;2.80;81.20;;;;;;4977454;28;87033;-87
2021/01/05 11:14:32;;;;;;;25.15;12.18;;;2.80;81.40;;;;;;4953702;28;87500;-86
2021/01/05 11:16:57;;;;;;;29.23;13.18;;;2.90;82.00;;;;;;4972822;28;86490;-86
2021/01/05 11:19:25;;;;;;;25.63;11.60;;;3.20;81.80;;;;;;4973745;28;86839;-86
2021/01/05 11:21:59;;;;;;;31.67;12.73;;;3.30;81.60;;;;;;4967136;28;87359;-88
2021/01/05 11:24:27;;;;;;;28.38;12.50;;;3.50;81.10;;;;;;4957908;28;87184;-87
2021/01/05 11:26:55;;;;;;;31.30;13.23;;;3.20;81.20;;;;;;4971800;28;87000;-86
2021/01/05 11:29:21;;;;;;;28.38;13.00;;;3.30;80.20;;;;;;4953662;28;87107;-84
2021/01/05 11:31:58;;;;;;;29.63;12.48;;;3.40;79.50;;;;;;4971521;28;87849;-86
2021/01/05 11:34:25;;;;;;;33.05;14.32;;;3.40;79.40;;;;;;4968398;28;88921;-87
2021/01/05 11:36:51;;;;;;;29.77;13.05;;;;;;;;;;4971004;28;86872;-88
2021/01/05 11:39:18;;;;;;;27.95;12.68;;;3.50;79.90;;;;;;4970188;28;86701;-87
2021/01/05 11:41:45;;;;;;;30.50;12.45;;;3.60;79.50;;;;;;4959555;28;87458;-84
2021/01/05 11:44:12;;;;;;;29.17;14.13;;;;;;;;;;4955342;28;88483;-86
2021/01/05 11:46:37;;;;;;;34.08;12.40;;;3.70;78.70;;;;;;4958917;28;86677;-87
2021/01/05 11:49:04;;;;;;;28.98;14.25;;;3.60;78.30;;;;;;4950864;28;86300;-84
2021/01/05 11:51:33;;;;;;;32.58;12.75;;;3.80;78.70;;;;;;4968758;28;86855;-86
2021/01/05 11:54:05;;;;;;;31.05;13.52;;;3.90;78.40;;;;;;4953177;28;88055;-86
2021/01/05 11:56:33;;;;;;;31.48;13.20;;;3.80;78.10;;;;;;4973465;28;87838;-85
2021/01/05 11:59:00;;;;;;;32.47;13.65;;;3.90;77.40;;;;;;4954229;28;87016;-85
2021/01/05 12:01:27;;;;;;;33.25;14.40;;;4.20;77.20;;;;;;4971013;28;87550;-86
2021/01/05 12:03:53;;;;;;;30.27;13.75;;;4.00;76.40;;;;;;4962204;28;89549;-83
2021/01/05 12:06:23;;;;;;;28.77;12.93;;;4.00;76.90;;;;;;4971783;28;86906;-85
2021/01/05 12:08:50;;;;;;;29.42;13.27;;;4.00;76.20;;;;;;4951014;28;86869;-85
2021/01/05 12:11:28;;;;;;;33.85;13.43;;;4.00;76.20;;;;;;4974284;28;87940;-83
2021/01/05 12:13:55;;;;;;;29.25;12.10;;;;;;;;;;4953750;28;88528;-85
2021/01/05 12:16:27;;;;;;;26.85;11.98;;;3.90;75.20;;;;;;4961575;28;87055;-84
2021/01/05 12:18:54;;;;;;;29.73;13.27;;;3.90;75.60;;;;;;4972412;28;87038;-84
2021/01/05 12:21:31;;;;;;;30.20;12.57;;;4.20;76.10;;;;;;4974016;28;88083;-84
2021/01/05 12:23:59;;;;;;;24.95;12.27;;;4.10;76.00;;;;;;4970217;28;88098;-84
2021/01/05 12:26:35;;;;;;;30.60;12.10;;;4.00;76.40;;;;;;4975634;28;86151;-84
2021/01/05 12:29:04;;;;;;;31.20;13.60;;;4.10;75.10;;;;;;4968966;28;86983;-85
2021/01/05 12:31:30;;;;;;;34.15;13.32;;;4.10;75.30;;;;;;4964225;28;87021;-85
2021/01/05 12:33:56;;;;;;;28.13;12.88;;;4.30;75.10;;;;;;4971813;28;87362;-87
2021/01/05 12:36:26;;;;;;;34.70;13.70;;;4.30;75.50;;;;;;4968894;28;86577;-85
2021/01/05 12:38:52;;;;;;;29.73;12.43;;;;;;;;;;4967869;28;85520;-84
2021/01/05 12:41:18;;;;;;;28.30;11.98;;;;;;;;;;4966912;28;87022;-84
2021/01/05 12:43:45;;;;;;;27.65;13.18;;;4.10;74.80;;;;;;4945487;28;88714;-85
2021/01/05 12:46:11;;;;;;;31.20;11.27;;;;;;;;;;4966659;28;87736;-84
2021/01/05 12:48:37;;;;;;;26.67;12.88;;;4.00;74.40;;;;;;4979366;28;86667;-86
2021/01/05 12:51:04;;;;;;;26.10;12.57;;;4.00;73.90;;;;;;4964175;28;87184;-85
2021/01/05 12:53:30;;;;;;;27.48;11.32;;;4.00;74.40;;;;;;4959272;28;89722;-86
2021/01/05 12:55:57;;;;;;;28.13;13.65;;;4.10;74.40;;;;;;4982200;28;86949;-87
2021/01/05 12:58:24;;;;;;;29.13;11.70;;;4.00;74.10;;;;;;4971757;28;86902;-86
2021/01/05 13:00:50;;;;;;;27.13;13.40;;;;;;;;;;4971628;28;87730;-87
2021/01/05 13:03:17;;;;;;;22.52;11.45;;;;;;;;;;4971648;28;87435;-83
2021/01/05 13:05:43;;;;;;;29.75;13.00;;;;;;;;;;4971791;28;86754;-85
2021/01/05 13:08:17;;;;;;;28.63;12.77;;;3.90;73.80;;;;;;4978352;28;86329;-87
2021/01/05 13:10:44;;;;;;;28.30;11.82;;;4.00;74.10;;;;;;4958628;28;88023;-88
2021/01/05 13:13:10;;;;;;;29.73;12.82;;;;;;;;;;4965800;28;88560;-86
2021/01/05 13:15:37;;;;;;;31.15;13.20;;;;;;;;;;4955343;28;86931;-86
2021/01/05 13:18:05;;;;;;;28.10;13.82;;;4.00;73.40;;;;;;4970155;28;86394;-85
2021/01/05 13:20:33;;;;;;;28.65;13.57;;;4.10;73.20;;;;;;4929551;28;87772;-84
2021/01/05 13:22:59;;;;;;;32.67;15.10;;;;;;;;;;4954420;28;86978;-86
2021/01/05 13:25:25;;;;;;;30.30;14.10;;;3.80;73.00;;;;;;4978469;28;87026;-85
2021/01/05 13:27:51;;;;;;;31.25;12.63;;;;;;;;;;4968316;28;86045;-86
2021/01/05 13:30:17;;;;;;;28.08;13.57;;;3.90;73.30;;;;;;4947598;28;88244;-86
2021/01/05 13:32:44;;;;;;;28.30;14.15;;;3.90;73.00;;;;;;4964557;28;89374;-86
2021/01/05 13:35:12;;;;;;;28.90;11.82;;;3.90;73.50;;;;;;4967970;28;87769;-87
2021/01/05 13:37:39;;;;;;;25.50;11.98;;;3.90;74.20;;;;;;4951723;28;86847;-86
2021/01/05 13:40:07;;;;;;;27.65;12.23;;;3.60;73.50;;;;;;4963215;28;87682;-84
2021/01/05 13:42:34;;;;;;;27.35;13.35;;;3.70;73.60;;;;;;4931802;28;88065;-84
2021/01/05 13:45:02;;;;;;;25.70;11.65;;;3.70;73.50;;;;;;4970566;28;87033;-86
2021/01/05 13:47:28;;;;;;;28.17;11.63;;;3.80;71.60;;;;;;4965593;28;87048;-84
2021/01/05 13:49:54;;;;;;;22.30;11.05;;;3.40;71.60;;;;;;4964861;28;87645;-83
2021/01/05 13:52:23;;;;;;;27.52;12.07;;;3.30;72.70;;;;;;4969625;28;86783;-84
2021/01/05 13:54:50;;;;;;;28.52;12.50;;;3.30;72.30;;;;;;4957720;28;86855;-84
2021/01/05 13:57:24;;;;;;;30.52;12.95;;;3.30;72.90;;;;;;4976570;28;86607;-84
2021/01/05 13:59:54;;;;;;;33.42;14.60;;;3.30;73.50;;;;;;4964699;28;89066;-85
2021/01/05 14:02:24;;;;;;;32.28;14.25;;;3.30;74.30;;;;;;4966685;28;88584;-86
2021/01/05 14:04:51;;;;;;;30.00;12.60;;;3.40;74.80;;;;;;4984786;28;86713;-84
2021/01/05 14:07:18;;;;;;;27.75;12.68;;;;;;;;;;4953678;28;87599;-84
2021/01/05 14:09:46;;;;;;;34.60;14.15;;;3.30;75.30;;;;;;4970825;28;87203;-84
2021/01/05 14:12:24;;;;;;;31.38;12.63;;;3.20;75.40;;;;;;4947652;28;92120;-84
2021/01/05 14:14:50;;;;;;;30.38;13.30;;;3.30;75.60;;;;;;4964574;28;86283;-85
2021/01/05 14:17:16;;;;;;;31.58;13.52;;;3.30;76.10;;;;;;4969624;28;85538;-85
2021/01/05 14:19:45;;;;;;;30.55;12.57;;;3.30;75.10;;;;;;4947035;28;90846;-85
2021/01/05 14:22:14;;;;;;;30.63;12.27;;;3.30;74.60;;;;;;4972434;28;87415;-85
2021/01/05 14:24:41;;;;;;;28.38;12.90;;;;;;;;;;4974445;28;87914;-83
2021/01/05 14:27:08;;;;;;;29.98;13.05;;;3.20;75.40;;;;;;4971871;28;86926;-83
2021/01/05 14:29:34;;;;;;;30.40;12.07;;;3.30;75.50;;;;;;4962075;28;88057;-85
2021/01/05 14:32:06;;;;;;;29.15;12.70;;;3.00;75.40;;;;;;4970576;28;86949;-85
2021/01/05 14:34:33;;;;;;;31.73;13.25;;;2.70;77.00;;;;;;4974897;28;86628;-84
2021/01/05 14:37:01;;;;;;;30.13;12.75;;;2.60;77.40;;;;;;4971648;28;86783;-85
2021/01/05 14:39:28;;;;;;;30.67;13.30;;;2.60;77.90;;;;;;4971817;28;87002;-86
2021/01/05 14:41:54;;;;;;;32.63;13.52;;;2.60;77.30;;;;;;4965652;28;86319;-85
2021/01/05 14:44:26;;;;;;;32.92;14.07;;;2.60;77.60;;;;;;4970076;28;86896;-86
2021/01/05 14:46:57;;;;;;;31.48;13.13;;;2.90;78.50;;;;;;4970158;28;86911;-84
2021/01/05 14:49:23;;;;;;;27.90;11.30;;;2.70;78.30;;;;;;4959574;28;88675;-85
2021/01/05 14:51:50;;;;;;;32.40;13.65;;;;;;;;;;4985219;28;88167;-85
2021/01/05 14:54:15;;;;;;;32.78;13.35;;;2.70;78.30;;;;;;4972351;28;86841;-85
2021/01/05 14:56:42;;;;;;;31.15;13.07;;;2.80;78.60;;;;;;4971783;28;86978;-86
2021/01/05 14:59:07;;;;;;;43.92;16.85;;;2.80;78.80;;;;;;4956661;28;88415;-85
2021/01/05 15:01:41;;;;;;;35.03;15.38;;;2.70;77.50;;;;;;4954050;28;90163;-85
2021/01/05 15:04:08;;;;;;;38.42;15.35;;;;;;;;;;4953047;28;86322;-85
2021/01/05 15:06:34;;;;;;;31.73;13.77;;;2.60;78.80;;;;;;4978204;28;86370;-85
2021/01/05 15:09:06;;;;;;;27.75;11.57;;;2.60;79.10;;;;;;4969583;28;87435;-85
2021/01/05 15:11:37;;;;;;;29.05;11.82;;;2.50;78.60;;;;;;4984864;28;87405;-86
2021/01/05 15:14:09;;;;;;;31.98;13.18;;;2.60;78.70;;;;;;4951943;28;87126;-84
2021/01/05 15:16:36;;;;;;;32.67;12.38;;;;;;;;;;4971182;28;86665;-85
2021/01/05 15:19:02;;;;;;;32.63;14.95;;;;;;;;;;4970775;28;87279;-86
2021/01/05 15:21:28;;;;;;;28.33;12.98;;;;;;;;;;4947222;28;87860;-86
2021/01/05 15:23:54;;;;;;;36.88;16.42;;;;;;;;;;4971792;28;87132;-86
2021/01/05 15:26:22;;;;;;;34.90;14.65;;;2.60;78.70;;;;;;4974897;28;87383;-86
2021/01/05 15:28:48;;;;;;;28.50;13.30;;;;;;;;;;4973786;28;88646;-85
2021/01/05 15:31:14;;;;;;;32.28;14.10;;;2.70;78.30;;;;;;4932593;28;89692;-83
2021/01/05 15:33:40;;;;;;;32.20;13.57;;;;;;;;;;4969404;28;86942;-83
2021/01/05 15:36:08;;;;;;;29.40;13.13;;;2.50;78.50;;;;;;4974936;28;87071;-84
2021/01/05 15:38:34;;;;;;;33.95;13.13;;;2.60;78.50;;;;;;4975599;28;88640;-84
2021/01/05 15:40:59;;;;;;;28.58;12.00;;;2.50;79.10;;;;;;4984733;28;87347;-85
2021/01/05 15:43:25;;;;;;;30.73;12.48;;;;;;;;;;4976174;28;86999;-85
2021/01/05 15:45:51;;;;;;;30.75;12.93;;;2.30;79.80;;;;;;4953186;28;86651;-86
2021/01/05 15:48:17;;;;;;;29.75;13.25;;;;;;;;;;4960843;28;89080;-85
2021/01/05 15:50:43;;;;;;;26.42;12.52;;;;;;;;;;4976416;28;88134;-85
2021/01/05 15:53:14;;;;;;;28.90;13.65;;;2.50;80.30;;;;;;4973905;28;86215;-84
2021/01/05 15:55:40;;;;;;;27.57;13.17;;;2.30;80.30;;;;;;4976417;28;86461;-86
2021/01/05 15:58:06;;;;;;;25.10;12.48;;;;;;;;;;4966375;28;87222;-86
2021/01/05 16:00:33;;;;;;;28.38;12.95;;;2.20;79.30;;;;;;4972255;28;86803;-85
2021/01/05 16:03:01;;;;;;;34.00;13.02;;;;;;;;;;4975798;28;87677;-84
2021/01/05 16:05:27;;;;;;;28.25;11.57;;;;;;;;;;4956203;28;86760;-86
2021/01/05 16:08:01;;;;;;;31.67;12.70;;;2.30;79.80;;;;;;4977395;28;86582;-84
2021/01/05 16:10:29;;;;;;;27.27;12.15;;;2.30;79.80;;;;;;4973435;28;86986;-85
2021/01/05 16:12:55;;;;;;;31.75;13.23;;;;;;;;;;4973277;28;86123;-85
2021/01/05 16:15:22;;;;;;;31.08;13.40;;;2.30;80.10;;;;;;4951807;28;86727;-85
2021/01/05 16:17:48;;;;;;;28.58;12.68;;;;;;;;;;4971743;28;87704;-86
2021/01/05 16:20:16;;;;;;;30.27;12.02;;;2.10;80.40;;;;;;4971329;28;87456;-84
2021/01/05 16:22:43;;;;;;;30.92;12.50;;;2.40;80.00;;;;;;4971894;28;86896;-86
2021/01/05 16:25:18;;;;;;;31.35;12.05;;;2.40;79.70;;;;;;4954337;28;86985;-82
2021/01/05 16:27:45;;;;;;;28.25;13.25;;;2.30;79.20;;;;;;4962758;28;89467;-85
2021/01/05 16:30:13;;;;;;;29.25;11.85;;;2.30;79.70;;;;;;4969600;28;89271;-86
2021/01/05 16:32:42;;;;;;;31.02;12.95;;;2.40;79.40;;;;;;4969313;28;86559;-84
2021/01/05 16:35:16;;;;;;;31.13;13.15;;;2.20;79.40;;;;;;4977981;28;86987;-82
2021/01/05 16:37:47;;;;;;;32.75;12.68;;;2.30;80.00;;;;;;4983015;28;88862;-82
2021/01/05 16:40:16;;;;;;;32.35;12.32;;;2.30;80.10;;;;;;4965797;28;89437;-83
2021/01/05 16:42:44;;;;;;;29.70;12.02;;;2.20;80.00;;;;;;4963526;28;86702;-83
2021/01/05 16:45:12;;;;;;;31.42;13.50;;;2.20;80.10;;;;;;4981266;28;86161;-84
2021/01/05 16:47:39;;;;;;;29.25;12.98;;;;;;;;;;4982775;28;88891;-85
2021/01/05 16:50:07;;;;;;;27.90;12.13;;;2.30;80.00;;;;;;4987118;28;88398;-85